createdAt,value
2022-11-22T00:02:12.267Z,98933.34
2022-11-22T00:04:59.825Z,98938.31
2022-11-22T00:07:47.244Z,98932.03
2022-11-22T00:10:35.856Z,98940.94
2022-11-22T00:13:22.666Z,98927.56
2022-11-22T00:16:10.191Z,98925.09
2022-11-22T00:18:57.193Z,98928.66
2022-11-22T00:21:45.039Z,98929.41
2022-11-22T00:24:31.947Z,98926.97
2022-11-22T00:27:21.224Z,98926.97
2022-11-22T00:30:09.663Z,98929.78
2022-11-22T00:32:56.760Z,98928.84
2022-11-22T00:35:43.841Z,98926.03
2022-11-22T00:38:31.013Z,98921.53
2022-11-22T00:41:18.129Z,98925.19
2022-11-22T00:44:07.014Z,98925.47
2022-11-22T00:46:54.447Z,98926.97
2022-11-22T00:49:41.709Z,98927.25
2022-11-22T00:52:28.767Z,98927.34
2022-11-22T00:55:16.418Z,98927.66
2022-11-22T00:58:03.619Z,98922.47
2022-11-22T01:00:56.301Z,98919.09
2022-11-22T01:03:43.691Z,98907.38
2022-11-22T01:06:30.814Z,98912.13
2022-11-22T01:09:20.376Z,98911.13
2022-11-22T01:12:07.965Z,98908.00
2022-11-22T01:14:54.988Z,98902.31
2022-11-22T01:17:43.501Z,98902.75
2022-11-22T01:20:30.829Z,98908.94
2022-11-22T01:23:17.808Z,98916.53
2022-11-22T01:26:07.399Z,98915.75
2022-11-22T01:28:54.433Z,98922.34
2022-11-22T01:31:41.365Z,98918.78
2022-11-22T01:34:29.670Z,98922.34
2022-11-22T01:37:16.681Z,98920.75
2022-11-22T01:40:03.647Z,98925.25
2022-11-22T01:42:52.460Z,98917.53
2022-11-22T01:45:49.556Z,98906.13
2022-11-22T01:48:49.166Z,98898.63
2022-11-22T01:51:41.359Z,98895.81
2022-11-22T01:54:33.399Z,98891.31
2022-11-22T01:57:25.302Z,98885.06
2022-11-22T02:00:16.281Z,98884.38
2022-11-22T02:03:07.649Z,98871.38
2022-11-22T02:05:55.988Z,98869.06
2022-11-22T02:08:53.901Z,98858.75
2022-11-22T02:11:47.085Z,98852.50
2022-11-22T02:14:35.739Z,98842.22
2022-11-22T02:17:23.271Z,98840.97
2022-11-22T02:20:11.074Z,98841.16
2022-11-22T02:23:04.883Z,98843.75
2022-11-22T02:25:55.681Z,98840.72
2022-11-22T02:28:43.179Z,98824.25
2022-11-22T02:31:41.715Z,98814.41
2022-11-22T02:34:28.807Z,98821.97
2022-11-22T02:37:18.757Z,98822.81
2022-11-22T02:40:09.972Z,98827.72
2022-11-22T02:43:02.852Z,98832.12
2022-11-22T02:45:49.909Z,98825.28
2022-11-22T02:48:41.921Z,98821.97
2022-11-22T02:51:28.933Z,98817.75
2022-11-22T02:54:16.041Z,98829.16
2022-11-22T02:57:03.467Z,98822.34
2022-11-22T02:59:51.863Z,98826.87
2022-11-22T03:02:39.154Z,98822.66
2022-11-22T03:05:26.092Z,98813.88
2022-11-22T03:08:13.195Z,98805.28
2022-11-22T03:11:00.763Z,98791.75
2022-11-22T03:13:47.931Z,98791.63
2022-11-22T03:16:36.223Z,98798.34
2022-11-22T03:19:23.800Z,98799.09
2022-11-22T03:22:11.691Z,98794.81
2022-11-22T03:24:59.164Z,98795.41
2022-11-22T03:27:46.295Z,98798.50
2022-11-22T03:30:34.418Z,98809.06
2022-11-22T03:33:22.618Z,98810.00
2022-11-22T03:36:09.677Z,98813.59
2022-11-22T03:38:56.531Z,98819.44
2022-11-22T03:41:43.854Z,98816.44
2022-11-22T03:44:30.676Z,98810.84
2022-11-22T03:47:17.779Z,98810.47
2022-11-22T03:50:07.234Z,98801.56
2022-11-22T03:52:54.396Z,98806.75
2022-11-22T03:55:41.656Z,98813.31
2022-11-22T03:58:29.127Z,98811.81
2022-11-22T04:01:16.946Z,98814.25
2022-11-22T04:04:04.341Z,98809.59
2022-11-22T04:06:52.799Z,98800.09
2022-11-22T04:09:39.822Z,98800.09
2022-11-22T04:12:26.620Z,98805.00
2022-11-22T04:15:12.820Z,98808.47
2022-11-22T04:17:59.767Z,98795.19
2022-11-22T04:21:15.838Z,98792.50
2022-11-22T04:24:23.756Z,98790.53
2022-11-22T04:27:11.060Z,98803.63
2022-11-22T04:29:58.208Z,98796.53
2022-11-22T04:32:46.912Z,98796.31
2022-11-22T04:35:33.759Z,98794.28
2022-11-22T04:38:21.001Z,98791.09
2022-11-22T04:41:08.938Z,98786.53
2022-11-22T04:44:13.302Z,98788.47
2022-11-22T04:47:00.163Z,98792.88
2022-11-22T04:49:47.947Z,98787.38
2022-11-22T04:52:51.980Z,98781.75
2022-11-22T04:55:38.969Z,98792.06
2022-11-22T04:58:27.333Z,98787.13
2022-11-22T05:01:14.398Z,98794.50
2022-11-22T05:04:01.266Z,98789.84
2022-11-22T05:06:48.470Z,98786.09
2022-11-22T05:09:35.497Z,98785.16
2022-11-22T05:12:22.795Z,98772.97
2022-11-22T05:15:12.271Z,98778.78
2022-11-22T05:17:59.587Z,98785.50
2022-11-22T05:20:46.918Z,98787.03
2022-11-22T05:23:51.492Z,98801.09
2022-11-22T05:26:38.231Z,98794.34
2022-11-22T05:29:25.495Z,98798.84
2022-11-22T05:32:13.780Z,98799.31
2022-11-22T05:35:01.480Z,98813.94
2022-11-22T05:37:48.497Z,98802.97
2022-11-22T05:40:36.006Z,98807.09
2022-11-22T05:43:22.721Z,98799.22
2022-11-22T05:46:12.386Z,98811.03
2022-11-22T05:49:00.623Z,98811.87
2022-11-22T05:51:47.872Z,98811.22
2022-11-22T05:54:34.857Z,98804.19
2022-11-22T05:57:22.197Z,98813.75
2022-11-22T06:00:10.414Z,98811.78
2022-11-22T06:03:02.451Z,98814.41
2022-11-22T06:05:53.735Z,98822.28
2022-11-22T06:08:42.025Z,98820.69
2022-11-22T06:11:30.021Z,98823.50
2022-11-22T06:14:16.688Z,98822.38
2022-11-22T06:17:04.150Z,98829.38
2022-11-22T06:19:51.108Z,98838.81
2022-11-22T06:22:39.686Z,98832.41
2022-11-22T06:25:27.175Z,98843.37
2022-11-22T06:28:14.304Z,98841.66
2022-11-22T06:31:02.449Z,98845.13
2022-11-22T06:33:49.970Z,98840.53
2022-11-22T06:36:38.899Z,98839.81
2022-11-22T06:39:27.483Z,98845.31
2022-11-22T06:42:14.751Z,98841.97
2022-11-22T06:45:01.614Z,98842.69
2022-11-22T06:47:48.463Z,98838.75
2022-11-22T06:50:35.978Z,98839.69
2022-11-22T06:53:45.802Z,98836.44
2022-11-22T06:59:44.235Z,98836.50
2022-11-22T07:02:31.485Z,98826.22
2022-11-22T07:05:25.740Z,98829.56
2022-11-22T07:08:14.185Z,98842.78
2022-11-22T07:11:03.712Z,98846.28
2022-11-22T07:13:51.522Z,98846.28
2022-11-22T07:16:40.056Z,98837.19
2022-11-22T07:19:27.209Z,98819.44
2022-11-22T07:22:14.267Z,98814.59
2022-11-22T07:25:01.394Z,98816.19
2022-11-22T07:27:48.284Z,98816.75
2022-11-22T07:30:38.610Z,98811.66
2022-11-22T07:33:30.393Z,98810.19
2022-11-22T07:36:19.296Z,98818.03
2022-11-22T07:39:05.999Z,98831.38
2022-11-22T07:41:53.208Z,98837.19
2022-11-22T07:44:40.006Z,98837.81
2022-11-22T07:47:27.107Z,98840.59
2022-11-22T07:50:16.993Z,98843.84
2022-11-22T07:53:04.262Z,98851.13
2022-11-22T07:55:51.244Z,98853.41
2022-11-22T07:58:38.642Z,98859.41
2022-11-22T08:01:25.615Z,98858.37
2022-11-22T08:04:13.289Z,98867.25
2022-11-22T08:07:01.355Z,98864.22
2022-11-22T08:09:48.718Z,98864.69
2022-11-22T08:12:35.572Z,98869.00
2022-11-22T08:15:22.635Z,98875.19
2022-11-22T08:18:09.606Z,98879.19
2022-11-22T08:21:04.137Z,98870.09
2022-11-22T08:23:52.577Z,98882.50
2022-11-22T08:26:40.006Z,98884.84
2022-11-22T08:29:29.302Z,98883.31
2022-11-22T08:32:16.534Z,98878.59
2022-11-22T08:35:03.835Z,98871.03
2022-11-22T08:37:51.077Z,98868.72
2022-11-22T08:40:41.170Z,98862.84
2022-11-22T08:43:28.631Z,98863.25
2022-11-22T08:46:15.588Z,98867.19
2022-11-22T08:49:03.949Z,98862.41
2022-11-22T08:51:50.689Z,98871.06
2022-11-22T08:54:38.421Z,98882.00
2022-11-22T08:57:27.123Z,98884.97
2022-11-22T09:00:15.532Z,98895.50
2022-11-22T09:03:02.514Z,98892.34
2022-11-22T09:09:15.018Z,98903.72
2022-11-22T09:12:02.759Z,98909.41
2022-11-22T09:14:50.799Z,98903.06
2022-11-22T09:17:37.758Z,98914.88
2022-11-22T09:20:24.779Z,98927.31
2022-11-22T09:23:11.992Z,98938.47
2022-11-22T09:25:59.823Z,98948.25
2022-11-22T09:28:47.549Z,98942.44
2022-11-22T09:31:36.207Z,98934.09
2022-11-22T09:34:23.632Z,98940.09
2022-11-22T09:37:10.108Z,98938.59
2022-11-22T09:39:57.108Z,98948.38
2022-11-22T09:43:06.370Z,98954.69
2022-11-22T09:46:12.420Z,98955.41
2022-11-22T09:49:26.927Z,98950.13
2022-11-22T09:52:18.358Z,98948.22
2022-11-22T09:55:12.608Z,98948.31
2022-11-22T09:58:09.746Z,98952.69
2022-11-22T10:01:03.252Z,98944.34
2022-11-22T10:03:55.618Z,98940.91
2022-11-22T10:06:46.521Z,98945.50
2022-11-22T10:09:41.013Z,98952.22
2022-11-22T10:12:37.658Z,98935.94
2022-11-22T10:15:32.810Z,98941.63
2022-11-22T10:18:24.741Z,98935.00
2022-11-22T10:21:13.992Z,98938.03
2022-11-22T10:24:02.027Z,98937.47
2022-11-22T10:26:49.967Z,98945.28
2022-11-22T10:29:43.488Z,98939.75
2022-11-22T10:32:38.215Z,98927.84
2022-11-22T10:35:36.700Z,98925.81
2022-11-22T10:38:40.942Z,98927.37
2022-11-22T10:41:42.443Z,98925.72
2022-11-22T10:44:41.629Z,98925.97
2022-11-22T10:47:41.025Z,98932.22
2022-11-22T10:50:36.738Z,98946.41
2022-11-22T10:53:32.917Z,98940.75
2022-11-22T10:56:28.720Z,98939.78
2022-11-22T10:59:39.018Z,98943.28
2022-11-22T11:02:47.160Z,98941.41
2022-11-22T11:06:00.892Z,98937.69
2022-11-22T11:09:48.079Z,98940.06
2022-11-22T11:12:02.343Z,98927.94
2022-11-22T11:14:54.146Z,98922.31
2022-11-22T11:17:43.205Z,98932.50
2022-11-22T11:20:36.380Z,98932.63
2022-11-22T11:23:23.377Z,98940.06
2022-11-22T11:26:21.746Z,98942.50
2022-11-22T11:29:35.991Z,98939.00
2022-11-22T11:32:25.916Z,98935.75
2022-11-22T11:35:15.635Z,98930.97
2022-11-22T11:38:02.592Z,98940.78
2022-11-22T11:40:49.391Z,98933.69
2022-11-22T11:43:43.872Z,98939.22
2022-11-22T11:46:45.317Z,98926.84
2022-11-22T11:49:35.310Z,98915.31
2022-11-22T11:52:24.147Z,98920.13
2022-11-22T11:55:18.039Z,98917.72
2022-11-22T11:58:19.522Z,98913.88
2022-11-22T12:01:11.808Z,98912.78
2022-11-22T12:04:01.246Z,98920.00
2022-11-22T12:07:04.152Z,98922.53
2022-11-22T12:09:54.540Z,98925.41
2022-11-22T12:12:47.778Z,98928.78
2022-11-22T12:15:45.008Z,98919.75
2022-11-22T12:18:39.977Z,98917.59
2022-11-22T12:21:34.555Z,98924.31
2022-11-22T12:25:03.073Z,98922.28
2022-11-22T12:27:35.833Z,98920.09
2022-11-22T12:30:24.475Z,98906.97
2022-11-22T12:33:20.068Z,98906.50
2022-11-22T12:36:22.116Z,98901.66
2022-11-22T12:39:16.002Z,98899.62
2022-11-22T12:42:10.030Z,98908.50
2022-11-22T12:45:02.265Z,98903.63
2022-11-22T12:47:51.753Z,98900.62
2022-11-22T12:50:42.852Z,98905.53
2022-11-22T12:53:32.734Z,98909.63
2022-11-22T12:56:32.773Z,98912.72
2022-11-22T12:59:33.430Z,98910.56
2022-11-22T13:02:30.199Z,98929.53
2022-11-22T13:05:21.385Z,98940.97
2022-11-22T13:08:14.354Z,98948.22
2022-11-22T13:11:10.124Z,98942.44
2022-11-22T13:14:01.220Z,98945.09
2022-11-22T13:16:50.521Z,98947.72
2022-11-22T13:19:46.788Z,98945.09
2022-11-22T13:22:44.225Z,98940.41
2022-11-22T13:25:45.865Z,98944.47
2022-11-22T13:28:36.989Z,98932.53
2022-11-22T13:31:24.202Z,98932.97
2022-11-22T13:34:26.441Z,98923.28
2022-11-22T13:37:16.766Z,98916.78
2022-11-22T13:40:23.209Z,98914.13
2022-11-22T13:43:33.852Z,98915.94
2022-11-22T13:46:54.345Z,98910.75
2022-11-22T13:49:48.963Z,98913.53
2022-11-22T13:52:53.860Z,98918.25
2022-11-22T13:55:42.599Z,98921.34
2022-11-22T13:58:55.990Z,98919.81
2022-11-22T14:01:59.365Z,98911.84
2022-11-22T14:04:55.881Z,98920.06
2022-11-22T14:07:43.795Z,98911.56
2022-11-22T14:10:34.527Z,98915.41
2022-11-22T14:13:33.219Z,98913.03
2022-11-22T14:16:34.551Z,98914.00
2022-11-22T14:19:34.651Z,98909.75
2022-11-22T14:22:34.758Z,98905.69
2022-11-22T14:25:42.052Z,98905.75
2022-11-22T14:28:53.910Z,98897.16
2022-11-22T14:31:41.618Z,98897.34
2022-11-22T14:34:30.839Z,98903.87
2022-11-22T14:37:46.794Z,98910.37
2022-11-22T14:40:38.830Z,98908.59
2022-11-22T14:43:32.616Z,98907.50
2022-11-22T14:46:51.748Z,98904.37
2022-11-22T14:49:41.851Z,98901.50
2022-11-22T14:52:32.855Z,98906.91
2022-11-22T14:55:25.383Z,98913.47
2022-11-22T14:58:19.383Z,98919.00
2022-11-22T15:02:04.685Z,98917.59
2022-11-22T15:09:17.866Z,98923.06
2022-11-22T15:09:19.465Z,98916.13
2022-11-22T15:11:49.551Z,98920.88
2022-11-22T15:59:53.736Z,98962.84
2022-11-22T16:02:49.758Z,98964.53
2022-11-22T16:06:05.784Z,98972.00
2022-11-22T16:08:49.562Z,98974.53
2022-11-22T16:11:40.028Z,98985.81
2022-11-22T16:14:42.905Z,98995.44
2022-11-22T16:17:33.495Z,99001.53
2022-11-22T16:20:30.049Z,99004.47
2022-11-22T16:23:27.626Z,99001.75
2022-11-22T16:26:21.831Z,99010.59
2022-11-22T16:29:26.031Z,99012.50
2022-11-22T16:32:15.269Z,99014.19
2022-11-22T16:35:27.992Z,99021.38
2022-11-22T16:38:11.142Z,99023.06
2022-11-22T16:40:59.629Z,99016.19
2022-11-22T16:43:49.229Z,99014.59
2022-11-22T16:46:36.747Z,99016.91
2022-11-22T16:49:23.953Z,99008.56
2022-11-22T16:52:13.077Z,99017.84
2022-11-22T16:55:00.503Z,99023.44
2022-11-22T16:57:47.606Z,99021.09
2022-11-22T17:00:35.458Z,99020.25
2022-11-22T17:03:26.560Z,99024.78
2022-11-22T17:06:18.747Z,99026.56
2022-11-22T17:09:07.984Z,99034.16
2022-11-22T17:11:55.961Z,99031.44
2022-11-22T17:14:43.740Z,99032.28
2022-11-22T17:17:30.601Z,99037.34
2022-11-22T17:20:18.374Z,99037.12
2022-11-22T17:23:08.235Z,99038.50
2022-11-22T17:25:57.256Z,99037.22
2022-11-22T17:28:44.044Z,99029.91
2022-11-22T17:31:31.923Z,99041.19
2022-11-22T17:34:19.343Z,99046.44
2022-11-22T17:37:12.099Z,99050.66
2022-11-22T17:39:59.047Z,99058.38
2022-11-22T17:42:47.885Z,99064.69
2022-11-22T17:45:40.260Z,99059.53
2022-11-22T17:48:27.848Z,99064.91
2022-11-22T17:51:15.282Z,99057.84
2022-11-22T17:54:02.645Z,99067.53
2022-11-22T17:56:49.977Z,99063.31
2022-11-22T17:59:38.707Z,99067.75
2022-11-22T18:02:25.780Z,99063.41
2022-11-22T18:05:14.254Z,99058.44
2022-11-22T18:08:01.387Z,99059.47
2022-11-22T18:10:52.974Z,99063.91
2022-11-22T18:13:41.075Z,99064.03
2022-11-22T18:16:31.222Z,99068.56
2022-11-22T18:19:17.852Z,99069.34
2022-11-22T18:22:04.842Z,99071.03
2022-11-22T18:24:51.862Z,99073.78
2022-11-22T18:27:42.152Z,99069.34
2022-11-22T18:30:29.256Z,99080.09
2022-11-22T18:33:18.064Z,99076.75
2022-11-22T18:36:36.996Z,99087.50
2022-11-22T18:39:14.801Z,99084.09
2022-11-22T18:42:02.399Z,99081.44
2022-11-22T18:44:49.799Z,99082.41
2022-11-22T18:47:36.944Z,99074.09
2022-11-22T18:50:26.764Z,99080.09
2022-11-22T18:53:14.406Z,99080.94
2022-11-22T18:56:04.604Z,99087.50
2022-11-22T18:58:52.430Z,99090.25
2022-11-22T19:01:40.666Z,99093.19
2022-11-22T19:04:28.157Z,99095.19
2022-11-22T19:07:17.684Z,99089.28
2022-11-22T19:10:07.934Z,99092.41
2022-11-22T19:12:55.109Z,99096.19
2022-11-22T19:15:45.219Z,99093.66
2022-11-22T19:18:37.241Z,99093.00
2022-11-22T19:21:30.605Z,99094.69
2022-11-22T19:24:19.156Z,99092.28
2022-11-22T19:27:06.693Z,99096.59
2022-11-22T19:29:54.366Z,99092.91
2022-11-22T19:32:41.375Z,99093.84
2022-11-22T19:35:28.919Z,99099.22
2022-11-22T19:38:16.008Z,99098.91
2022-11-22T19:41:08.343Z,99104.28
2022-11-22T19:43:57.384Z,99112.09
2022-11-22T19:46:44.477Z,99115.56
2022-11-22T19:49:31.767Z,99118.19
2022-11-22T19:52:20.194Z,99118.19
2022-11-22T19:55:07.706Z,99101.37
2022-11-22T19:57:56.117Z,99108.31
2022-11-22T20:00:42.974Z,99107.38
2022-11-22T20:03:30.520Z,99104.22
2022-11-22T20:06:17.381Z,99106.66
2022-11-22T20:09:06.557Z,99110.03
2022-11-22T20:11:54.115Z,99113.72
2022-11-22T20:14:42.773Z,99104.03
2022-11-22T20:17:30.804Z,99116.87
2022-11-22T20:20:18.104Z,99111.72
2022-11-22T20:23:05.243Z,99104.88
2022-11-22T20:25:52.940Z,99110.03
2022-11-22T20:28:41.599Z,99106.44
2022-11-22T20:31:31.351Z,99114.56
2022-11-22T20:34:18.492Z,99118.34
2022-11-22T20:37:06.986Z,99120.88
2022-11-22T20:39:53.688Z,99121.62
2022-11-22T20:42:41.263Z,99123.53
2022-11-22T20:45:28.051Z,99114.56
2022-11-22T20:48:18.543Z,99125.16
2022-11-22T20:51:08.034Z,99121.78
2022-11-22T20:53:56.330Z,99115.66
2022-11-22T20:56:42.979Z,99127.72
2022-11-22T20:59:30.486Z,99120.66
2022-11-22T21:02:17.380Z,99130.34
2022-11-22T21:05:06.619Z,99137.28
2022-11-22T21:07:53.686Z,99138.13
2022-11-22T21:10:40.910Z,99131.72
2022-11-22T21:13:27.859Z,99131.50
2022-11-22T21:16:24.881Z,99124.16
2022-11-22T21:19:12.007Z,99124.78
2022-11-22T21:22:02.600Z,99132.94
2022-11-22T21:24:49.767Z,99142.34
2022-11-22T21:27:37.168Z,99141.19
2022-11-22T21:30:23.816Z,99143.25
2022-11-22T21:33:10.852Z,99142.06
2022-11-22T21:35:57.778Z,99146.00
2022-11-22T21:38:46.094Z,99151.81
2022-11-22T21:41:41.310Z,99147.06
2022-11-22T21:44:28.991Z,99141.56
2022-11-22T21:47:16.207Z,99150.25
2022-11-22T21:50:07.274Z,99145.59
2022-11-22T21:52:58.244Z,99143.69
2022-11-22T21:55:51.677Z,99149.72
2022-11-22T21:58:38.531Z,99145.19
2022-11-22T22:01:26.454Z,99150.16
2022-11-22T22:04:13.630Z,99145.81
2022-11-22T22:07:00.250Z,99139.81
2022-11-22T22:09:47.664Z,99128.19
2022-11-22T22:12:35.809Z,99144.31
2022-11-22T22:15:22.970Z,99131.13
2022-11-22T22:18:09.976Z,99135.38
2022-11-22T22:21:04.790Z,99127.34
2022-11-22T22:23:53.491Z,99132.41
2022-11-22T22:26:42.316Z,99140.53
2022-11-22T22:29:30.880Z,99140.66
2022-11-22T22:32:17.980Z,99141.59
2022-11-22T22:35:05.604Z,99143.41
2022-11-22T22:37:52.723Z,99150.47
2022-11-22T22:40:39.480Z,99157.50
2022-11-22T22:43:30.696Z,99159.00
2022-11-22T22:46:20.612Z,99161.66
2022-11-22T22:49:08.173Z,99163.56
2022-11-22T22:51:55.363Z,99158.91
2022-11-22T22:54:42.378Z,99161.25
2022-11-22T22:57:29.455Z,99164.41
2022-11-22T23:00:17.624Z,99170.50
2022-11-22T23:03:05.807Z,99169.03
2022-11-22T23:05:53.181Z,99175.34
2022-11-22T23:08:41.016Z,99167.34
2022-11-22T23:11:44.426Z,99167.53
2022-11-22T23:14:31.513Z,99169.34
2022-11-22T23:17:19.245Z,99162.09
2022-11-22T23:20:08.376Z,99169.87
2022-11-22T23:22:56.103Z,99163.78
2022-11-22T23:25:42.975Z,99173.38
2022-11-22T23:28:30.602Z,99170.50
2022-11-22T23:31:18.209Z,99174.09
2022-11-22T23:34:05.434Z,99163.56
2022-11-22T23:36:53.778Z,99170.50
2022-11-22T23:39:40.707Z,99174.94
2022-11-22T23:42:27.726Z,99175.06
2022-11-22T23:45:15.263Z,99172.63
2022-11-22T23:48:02.368Z,99175.16
2022-11-22T23:50:49.789Z,99172.53
2022-11-22T23:53:38.519Z,99168.94
2022-11-22T23:56:26.591Z,99178.53
2022-11-22T23:59:13.765Z,99176.00
